You are listening to:
KFIT CTAF - Fitchburg, Massachusetts, United States

KFIT 200952Z AUTO 00000KT 10SM CLR 16/14 A3006 RMK AO2 SLP179 T01610144

If stream does not start automatically press the play button